Mud River, Canada
Current Conditions -  °F | °C
As of 12:00 PM on Thursday 29 Jan 2015 (Local Time) from CYXS Reporting Station
Broken Clouds Broken Clouds  
Wind Chill: 24°   Ceiling: 7500
Heat Index: 32°   Visibility: 9mi
Dew Point: 27°   Wind: 9mph
Humidity: 80%   Direction: 170°S
Pressure: 30.29"   Gusts: NA
Location:  53.77°N, 123.05°W
Report Text: CYXS 292000Z AUTO 17008KT 9SM BKN075 00/M03 A3029 RMK SLP292
Loading
Personal Weather Stations






























Interactive Weather Map New forecast layout! Learn more

10-Day Weather Forecast

Advertisements
Track Severe Weather on mobile